sensor_id;sensor_type;location;lat;lon;timestamp;pressure;altitude;pressure_sealevel;temperature;humidity
45327;BME280;31062;49.678;24.560;2023-07-16T00:00:52;98339.88;;;20.66;71.06
45327;BME280;31062;49.678;24.560;2023-07-16T00:03:37;98111.63;;;19.02;70.73
45327;BME280;31062;49.678;24.560;2023-07-16T00:06:23;98347.53;;;20.63;70.44
45327;BME280;31062;49.678;24.560;2023-07-16T00:09:08;98350.59;;;20.69;70.35
45327;BME280;31062;49.678;24.560;2023-07-16T00:11:54;98238.88;;;19.87;70.26
45327;BME280;31062;49.678;24.560;2023-07-16T00:14:39;98366.13;;;20.70;70.33
45327;BME280;31062;49.678;24.560;2023-07-16T00:17:24;98367.66;;;20.73;70.45
45327;BME280;31062;49.678;24.560;2023-07-16T00:20:10;98209.19;;;19.67;70.31
45327;BME280;31062;49.678;24.560;2023-07-16T00:22:56;98348.81;;;20.60;70.07
45327;BME280;31062;49.678;24.560;2023-07-16T00:25:42;98368.84;;;20.68;70.31
45327;BME280;31062;49.678;24.560;2023-07-16T00:28:28;98310.38;;;20.16;69.79
45327;BME280;31062;49.678;24.560;2023-07-16T00:31:13;98360.47;;;20.53;69.79
45327;BME280;31062;49.678;24.560;2023-07-16T00:33:59;98303.41;;;20.17;69.96
45327;BME280;31062;49.678;24.560;2023-07-16T00:36:44;98239.50;;;19.68;69.90
45327;BME280;31062;49.678;24.560;2023-07-16T00:39:30;98231.91;;;19.55;70.05
45327;BME280;31062;49.678;24.560;2023-07-16T00:42:16;98209.44;;;19.39;70.06
45327;BME280;31062;49.678;24.560;2023-07-16T00:45:01;98344.41;;;20.38;70.24
45327;BME280;31062;49.678;24.560;2023-07-16T00:47:47;98352.91;;;20.40;70.27
45327;BME280;31062;49.678;24.560;2023-07-16T00:50:36;98152.41;;;19.03;70.17
45327;BME280;31062;49.678;24.560;2023-07-16T00:53:24;98354.75;;;20.33;70.71
45327;BME280;31062;49.678;24.560;2023-07-16T00:56:10;98294.41;;;19.87;70.40
45327;BME280;31062;49.678;24.560;2023-07-16T00:58:55;98340.81;;;20.19;70.29
45327;BME280;31062;49.678;24.560;2023-07-16T01:01:41;98293.53;;;19.82;70.24
45327;BME280;31062;49.678;24.560;2023-07-16T01:04:33;98249.50;;;19.55;70.26
45327;BME280;31062;49.678;24.560;2023-07-16T01:07:24;98326.97;;;20.08;70.30
45327;BME280;31062;49.678;24.560;2023-07-16T01:10:13;98278.88;;;19.68;70.06
45327;BME280;31062;49.678;24.560;2023-07-16T01:13:02;98187.56;;;19.04;70.33
45327;BME280;31062;49.678;24.560;2023-07-16T01:15:50;98288.50;;;19.63;70.11
45327;BME280;31062;49.678;24.560;2023-07-16T01:18:35;98332.06;;;19.95;70.16
45327;BME280;31062;49.678;24.560;2023-07-16T01:21:23;98341.16;;;19.94;70.06
45327;BME280;31062;49.678;24.560;2023-07-16T01:30:18;98340.16;;;19.87;70.85
45327;BME280;31062;49.678;24.560;2023-07-16T01:33:04;98340.00;;;19.83;70.32
45327;BME280;31062;49.678;24.560;2023-07-16T01:35:57;98186.31;;;18.76;69.98
45327;BME280;31062;49.678;24.560;2023-07-16T01:38:44;98293.59;;;19.51;69.93
45327;BME280;31062;49.678;24.560;2023-07-16T01:41:31;98289.75;;;19.44;69.97
45327;BME280;31062;49.678;24.560;2023-07-16T01:44:18;98259.88;;;19.20;69.80
45327;BME280;31062;49.678;24.560;2023-07-16T01:50:21;98278.28;;;19.23;69.69
45327;BME280;31062;49.678;24.560;2023-07-16T01:53:09;98265.69;;;19.24;70.01
45327;BME280;31062;49.678;24.560;2023-07-16T01:55:55;98335.31;;;19.41;70.06
45327;BME280;31062;49.678;24.560;2023-07-16T01:58:40;98201.44;;;18.69;70.04
45327;BME280;31062;49.678;24.560;2023-07-16T02:01:26;98345.75;;;19.54;70.33
45327;BME280;31062;49.678;24.560;2023-07-16T02:04:11;98341.09;;;19.45;70.74
45327;BME280;31062;49.678;24.560;2023-07-16T02:06:58;98318.97;;;19.37;70.01
45327;BME280;31062;49.678;24.560;2023-07-16T02:10:14;98174.66;;;18.36;69.89
45327;BME280;31062;49.678;24.560;2023-07-16T02:13:06;98274.38;;;18.98;70.01
45327;BME280;31062;49.678;24.560;2023-07-16T02:16:00;98267.31;;;18.97;69.84
45327;BME280;31062;49.678;24.560;2023-07-16T02:18:46;98152.75;;;18.17;70.02
45327;BME280;31062;49.678;24.560;2023-07-16T02:21:35;98277.19;;;18.98;70.21
45327;BME280;31062;49.678;24.560;2023-07-16T02:24:20;98327.84;;;19.32;70.28
45327;BME280;31062;49.678;24.560;2023-07-16T02:27:09;98151.81;;;18.13;70.35
45327;BME280;31062;49.678;24.560;2023-07-16T02:29:54;98279.19;;;18.80;70.48
45327;BME280;31062;49.678;24.560;2023-07-16T02:32:40;98241.38;;;18.67;70.22
45327;BME280;31062;49.678;24.560;2023-07-16T02:35:26;98343.25;;;19.31;70.29
45327;BME280;31062;49.678;24.560;2023-07-16T02:38:13;98337.56;;;19.29;70.35
45327;BME280;31062;49.678;24.560;2023-07-16T02:40:58;98263.69;;;18.79;70.35
45327;BME280;31062;49.678;24.560;2023-07-16T02:43:45;98302.56;;;19.00;70.76
45327;BME280;31062;49.678;24.560;2023-07-16T02:46:32;98336.75;;;19.26;70.86
45327;BME280;31062;49.678;24.560;2023-07-16T02:49:17;98345.72;;;19.23;70.90
45327;BME280;31062;49.678;24.560;2023-07-16T02:52:03;98330.22;;;19.22;70.74
45327;BME280;31062;49.678;24.560;2023-07-16T02:54:48;98200.72;;;18.23;70.79
45327;BME280;31062;49.678;24.560;2023-07-16T02:57:34;98320.63;;;19.11;70.79
45327;BME280;31062;49.678;24.560;2023-07-16T03:00:19;98333.38;;;19.14;70.87
45327;BME280;31062;49.678;24.560;2023-07-16T03:03:04;98325.69;;;19.14;70.78
45327;BME280;31062;49.678;24.560;2023-07-16T03:05:50;98290.78;;;18.88;70.66
45327;BME280;31062;49.678;24.560;2023-07-16T03:08:36;98264.19;;;18.60;70.72
45327;BME280;31062;49.678;24.560;2023-07-16T03:11:22;98169.69;;;17.90;70.87
45327;BME280;31062;49.678;24.560;2023-07-16T03:14:07;98231.88;;;18.29;71.44
45327;BME280;31062;49.678;24.560;2023-07-16T03:16:53;98215.34;;;18.06;71.17
45327;BME280;31062;49.678;24.560;2023-07-16T03:19:38;98340.19;;;18.93;71.07
45327;BME280;31062;49.678;24.560;2023-07-16T03:22:24;98202.31;;;18.13;70.74
45327;BME280;31062;49.678;24.560;2023-07-16T03:25:09;98298.66;;;18.76;70.75
45327;BME280;31062;49.678;24.560;2023-07-16T03:27:54;98197.59;;;18.02;70.50
45327;BME280;31062;49.678;24.560;2023-07-16T03:30:40;98185.66;;;18.01;70.83
45327;BME280;31062;49.678;24.560;2023-07-16T03:33:26;98204.50;;;18.14;71.06
45327;BME280;31062;49.678;24.560;2023-07-16T03:36:13;98285.75;;;18.71;71.31
45327;BME280;31062;49.678;24.560;2023-07-16T03:39:01;98265.13;;;18.64;71.05
45327;BME280;31062;49.678;24.560;2023-07-16T03:41:48;98180.25;;;18.05;71.17
45327;BME280;31062;49.678;24.560;2023-07-16T03:44:33;98182.22;;;18.03;71.34
45327;BME280;31062;49.678;24.560;2023-07-16T03:47:21;98293.31;;;18.82;71.24
45327;BME280;31062;49.678;24.560;2023-07-16T03:50:07;98222.66;;;18.27;71.14
45327;BME280;31062;49.678;24.560;2023-07-16T03:52:52;98335.28;;;19.09;71.59
45327;BME280;31062;49.678;24.560;2023-07-16T03:55:38;98354.84;;;19.07;72.01
45327;BME280;31062;49.678;24.560;2023-07-16T03:58:24;98324.78;;;18.94;72.42
45327;BME280;31062;49.678;24.560;2023-07-16T04:01:09;98178.28;;;17.94;72.71
45327;BME280;31062;49.678;24.560;2023-07-16T04:03:55;98194.28;;;18.05;72.97
45327;BME280;31062;49.678;24.560;2023-07-16T04:06:40;98189.28;;;18.04;73.58
45327;BME280;31062;49.678;24.560;2023-07-16T04:09:25;98309.72;;;18.88;74.00
45327;BME280;31062;49.678;24.560;2023-07-16T04:12:11;98298.84;;;18.80;74.06
45327;BME280;31062;49.678;24.560;2023-07-16T04:14:57;98191.84;;;18.13;74.76
45327;BME280;31062;49.678;24.560;2023-07-16T04:17:43;98216.69;;;18.34;75.19
45327;BME280;31062;49.678;24.560;2023-07-16T04:20:28;98340.19;;;19.25;75.36
45327;BME280;31062;49.678;24.560;2023-07-16T04:23:16;98205.38;;;18.32;75.71
45327;BME280;31062;49.678;24.560;2023-07-16T04:26:01;98245.81;;;18.57;75.80
45327;BME280;31062;49.678;24.560;2023-07-16T04:28:46;98349.00;;;19.33;76.09
45327;BME280;31062;49.678;24.560;2023-07-16T04:31:32;98336.38;;;19.34;76.06
45327;BME280;31062;49.678;24.560;2023-07-16T04:34:17;98190.59;;;18.32;76.23
45327;BME280;31062;49.678;24.560;2023-07-16T04:37:02;98184.16;;;18.29;76.05
45327;BME280;31062;49.678;24.560;2023-07-16T04:39:48;98323.53;;;19.29;76.95
45327;BME280;31062;49.678;24.560;2023-07-16T04:42:33;98337.31;;;19.54;76.92
45327;BME280;31062;49.678;24.560;2023-07-16T04:45:19;98091.56;;;17.98;77.06
45327;BME280;31062;49.678;24.560;2023-07-16T04:48:04;98343.41;;;19.97;76.51
45327;BME280;31062;49.678;24.560;2023-07-16T04:50:51;98298.81;;;19.74;75.96
45327;BME280;31062;49.678;24.560;2023-07-16T04:53:37;98300.94;;;20.43;75.25
45327;BME280;31062;49.678;24.560;2023-07-16T04:56:23;98194.28;;;19.97;74.17
45327;BME280;31062;49.678;24.560;2023-07-16T05:01:10;98209.47;;;20.61;72.44
45327;BME280;31062;49.678;24.560;2023-07-16T05:03:55;98326.34;;;21.75;71.59
45327;BME280;31062;49.678;24.560;2023-07-16T05:06:41;98337.31;;;22.06;69.92
45327;BME280;31062;49.678;24.560;2023-07-16T05:09:27;98179.88;;;21.20;68.71
45327;BME280;31062;49.678;24.560;2023-07-16T05:12:13;98346.94;;;22.62;68.09
45327;BME280;31062;49.678;24.560;2023-07-16T05:15:00;98271.81;;;22.31;67.44
45327;BME280;31062;49.678;24.560;2023-07-16T05:17:45;98224.59;;;22.34;66.96
45327;BME280;31062;49.678;24.560;2023-07-16T05:20:31;98358.88;;;23.52;65.73
45327;BME280;31062;49.678;24.560;2023-07-16T05:23:16;98328.59;;;23.56;65.73
45327;BME280;31062;49.678;24.560;2023-07-16T05:26:02;98358.88;;;24.04;65.13
45327;BME280;31062;49.678;24.560;2023-07-16T05:28:47;98226.88;;;23.37;64.33
45327;BME280;31062;49.678;24.560;2023-07-16T05:31:32;98324.38;;;24.11;63.65
45327;BME280;31062;49.678;24.560;2023-07-16T05:34:18;98222.34;;;23.79;62.85
45327;BME280;31062;49.678;24.560;2023-07-16T05:37:03;98379.25;;;24.81;62.03
45327;BME280;31062;49.678;24.560;2023-07-16T05:39:49;98265.84;;;24.20;61.88
45327;BME280;31062;49.678;24.560;2023-07-16T05:42:35;98340.81;;;24.74;61.26
45327;BME280;31062;49.678;24.560;2023-07-16T05:45:21;98229.03;;;24.20;60.44
45327;BME280;31062;49.678;24.560;2023-07-16T05:48:06;98351.41;;;25.02;60.83
45327;BME280;31062;49.678;24.560;2023-07-16T05:50:51;98240.56;;;24.28;59.43
45327;BME280;31062;49.678;24.560;2023-07-16T05:53:37;98350.13;;;25.09;59.32
45327;BME280;31062;49.678;24.560;2023-07-16T05:56:22;98359.75;;;25.28;59.84
45327;BME280;31062;49.678;24.560;2023-07-16T05:59:08;98384.16;;;25.41;58.09
45327;BME280;31062;49.678;24.560;2023-07-16T06:01:53;98374.38;;;25.48;57.69
45327;BME280;31062;49.678;24.560;2023-07-16T06:04:39;98387.91;;;25.51;57.00
45327;BME280;31062;49.678;24.560;2023-07-16T06:07:24;98240.59;;;24.60;56.48
45327;BME280;31062;49.678;24.560;2023-07-16T06:10:11;98324.72;;;25.15;56.39
45327;BME280;31062;49.678;24.560;2023-07-16T06:12:56;98330.56;;;25.23;56.23
45327;BME280;31062;49.678;24.560;2023-07-16T06:15:42;98377.50;;;25.60;55.11
45327;BME280;31062;49.678;24.560;2023-07-16T06:18:28;98359.81;;;25.64;55.68
45327;BME280;31062;49.678;24.560;2023-07-16T06:21:13;98371.34;;;25.72;55.02
45327;BME280;31062;49.678;24.560;2023-07-16T06:23:58;98247.75;;;24.97;54.93
45327;BME280;31062;49.678;24.560;2023-07-16T06:26:44;98232.16;;;24.96;54.31
45327;BME280;31062;49.678;24.560;2023-07-16T06:29:29;98367.34;;;25.85;54.01
45327;BME280;31062;49.678;24.560;2023-07-16T06:32:15;98310.75;;;25.59;54.35
45327;BME280;31062;49.678;24.560;2023-07-16T06:35:02;98360.50;;;26.00;53.80
45327;BME280;31062;49.678;24.560;2023-07-16T06:37:48;98334.03;;;25.89;53.80
45327;BME280;31062;49.678;24.560;2023-07-16T06:40:33;98376.41;;;26.15;53.16
45327;BME280;31062;49.678;24.560;2023-07-16T06:43:19;98366.66;;;26.24;53.81
45327;BME280;31062;49.678;24.560;2023-07-16T06:46:08;98371.03;;;26.31;54.16
45327;BME280;31062;49.678;24.560;2023-07-16T06:49:05;98359.81;;;26.39;53.33
45327;BME280;31062;49.678;24.560;2023-07-16T06:51:53;98357.06;;;26.46;53.69
45327;BME280;31062;49.678;24.560;2023-07-16T06:54:39;98355.03;;;26.52;53.64
45327;BME280;31062;49.678;24.560;2023-07-16T06:57:26;98375.91;;;26.67;53.18
45327;BME280;31062;49.678;24.560;2023-07-16T07:00:12;98274.16;;;26.15;52.39
45327;BME280;31062;49.678;24.560;2023-07-16T07:02:58;98303.75;;;26.44;52.56
45327;BME280;31062;49.678;24.560;2023-07-16T07:05:44;98363.31;;;26.82;52.52
45327;BME280;31062;49.678;24.560;2023-07-16T07:08:30;98261.47;;;26.22;52.61
45327;BME280;31062;49.678;24.560;2023-07-16T07:11:16;98347.91;;;26.95;52.61
45327;BME280;31062;49.678;24.560;2023-07-16T07:14:01;98253.13;;;26.32;52.92
45327;BME280;31062;49.678;24.560;2023-07-16T07:16:46;98352.38;;;27.08;52.55
45327;BME280;31062;49.678;24.560;2023-07-16T07:19:32;98331.66;;;27.02;52.01
45327;BME280;31062;49.678;24.560;2023-07-16T07:22:17;98201.78;;;26.20;51.05
45327;BME280;31062;49.678;24.560;2023-07-16T07:25:08;98232.72;;;26.46;51.70
45327;BME280;31062;49.678;24.560;2023-07-16T07:27:53;98232.16;;;26.58;52.12
45327;BME280;31062;49.678;24.560;2023-07-16T07:30:39;98247.44;;;26.82;52.28
45327;BME280;31062;49.678;24.560;2023-07-16T07:33:24;98321.53;;;27.45;52.08
45327;BME280;31062;49.678;24.560;2023-07-16T07:36:10;98255.69;;;27.12;51.97
45327;BME280;31062;49.678;24.560;2023-07-16T07:38:55;98228.47;;;26.99;51.91
45327;BME280;31062;49.678;24.560;2023-07-16T07:41:41;98307.47;;;27.57;50.21
45327;BME280;31062;49.678;24.560;2023-07-16T07:44:26;98362.00;;;27.93;51.29
45327;BME280;31062;49.678;24.560;2023-07-16T07:47:12;98356.41;;;28.06;51.90
45327;BME280;31062;49.678;24.560;2023-07-16T07:49:59;98258.91;;;27.45;51.81
45327;BME280;31062;49.678;24.560;2023-07-16T07:52:44;98348.03;;;28.22;51.74
45327;BME280;31062;49.678;24.560;2023-07-16T07:55:29;98364.50;;;28.31;52.45
45327;BME280;31062;49.678;24.560;2023-07-16T07:58:15;98349.59;;;28.37;52.30
45327;BME280;31062;49.678;24.560;2023-07-16T08:01:07;98339.69;;;28.42;50.18
45327;BME280;31062;49.678;24.560;2023-07-16T08:03:53;98338.25;;;28.41;49.69
45327;BME280;31062;49.678;24.560;2023-07-16T08:09:13;98313.97;;;28.38;47.75
45327;BME280;31062;49.678;24.560;2023-07-16T08:11:59;98312.59;;;28.41;48.14
45327;BME280;31062;49.678;24.560;2023-07-16T08:14:44;98296.78;;;28.28;47.77
45327;BME280;31062;49.678;24.560;2023-07-16T08:17:30;98312.56;;;28.39;48.27
45327;BME280;31062;49.678;24.560;2023-07-16T08:20:16;98322.69;;;28.58;48.05
45327;BME280;31062;49.678;24.560;2023-07-16T08:23:02;98325.63;;;28.68;46.74
45327;BME280;31062;49.678;24.560;2023-07-16T08:25:48;98198.00;;;27.74;46.97
45327;BME280;31062;49.678;24.560;2023-07-16T08:28:36;98324.16;;;28.63;46.72
45327;BME280;31062;49.678;24.560;2023-07-16T08:31:21;98342.66;;;28.58;47.35
45327;BME280;31062;49.678;24.560;2023-07-16T08:34:07;98312.72;;;28.59;47.32
45327;BME280;31062;49.678;24.560;2023-07-16T08:36:52;98304.09;;;28.47;47.71
45327;BME280;31062;49.678;24.560;2023-07-16T08:39:38;98235.22;;;27.94;47.91
45327;BME280;31062;49.678;24.560;2023-07-16T08:42:23;98301.97;;;28.52;48.01
45327;BME280;31062;49.678;24.560;2023-07-16T08:45:10;98337.03;;;28.68;46.28
45327;BME280;31062;49.678;24.560;2023-07-16T08:47:56;98306.25;;;28.55;47.64
45327;BME280;31062;49.678;24.560;2023-07-16T08:50:42;98338.56;;;28.77;46.15
45327;BME280;31062;49.678;24.560;2023-07-16T08:53:31;98348.53;;;28.80;46.72
45327;BME280;31062;49.678;24.560;2023-07-16T08:56:16;98234.72;;;28.16;46.53
45327;BME280;31062;49.678;24.560;2023-07-16T08:59:03;98183.81;;;27.80;45.93
45327;BME280;31062;49.678;24.560;2023-07-16T09:01:48;98187.41;;;27.85;47.36
45327;BME280;31062;49.678;24.560;2023-07-16T09:04:34;98209.63;;;28.00;47.86
45327;BME280;31062;49.678;24.560;2023-07-16T09:07:20;98301.31;;;28.59;47.38
45327;BME280;31062;49.678;24.560;2023-07-16T09:10:11;98212.50;;;28.05;47.26
45327;BME280;31062;49.678;24.560;2023-07-16T09:12:58;98191.09;;;28.01;46.34
45327;BME280;31062;49.678;24.560;2023-07-16T09:15:54;98341.53;;;28.96;46.00
45327;BME280;31062;49.678;24.560;2023-07-16T09:18:40;98198.25;;;28.07;47.30
45327;BME280;31062;49.678;24.560;2023-07-16T09:21:26;98189.84;;;28.17;47.45
45327;BME280;31062;49.678;24.560;2023-07-16T09:24:16;98219.94;;;28.42;46.41
45327;BME280;31062;49.678;24.560;2023-07-16T09:27:05;98242.16;;;28.62;47.59
45327;BME280;31062;49.678;24.560;2023-07-16T09:29:51;98294.47;;;29.01;46.24
45327;BME280;31062;49.678;24.560;2023-07-16T09:32:39;98178.34;;;28.09;45.56
45327;BME280;31062;49.678;24.560;2023-07-16T09:35:25;98310.22;;;29.14;46.82
45327;BME280;31062;49.678;24.560;2023-07-16T09:38:11;98308.81;;;29.17;45.82
45327;BME280;31062;49.678;24.560;2023-07-16T09:40:58;98194.25;;;28.40;46.96
45327;BME280;31062;49.678;24.560;2023-07-16T09:43:45;98285.94;;;29.09;45.65
45327;BME280;31062;49.678;24.560;2023-07-16T09:46:30;98307.44;;;29.30;44.66
45327;BME280;31062;49.678;24.560;2023-07-16T09:49:16;98311.78;;;29.37;43.80
45327;BME280;31062;49.678;24.560;2023-07-16T09:52:02;98213.66;;;28.66;44.94
45327;BME280;31062;49.678;24.560;2023-07-16T09:54:50;98285.25;;;29.14;44.37
45327;BME280;31062;49.678;24.560;2023-07-16T09:57:40;98317.53;;;29.43;44.95
45327;BME280;31062;49.678;24.560;2023-07-16T10:00:27;98295.28;;;29.28;45.33
45327;BME280;31062;49.678;24.560;2023-07-16T10:03:14;98306.13;;;29.55;45.71
45327;BME280;31062;49.678;24.560;2023-07-16T10:06:07;98298.28;;;29.58;44.40
45327;BME280;31062;49.678;24.560;2023-07-16T10:08:53;98207.38;;;28.92;45.86
45327;BME280;31062;49.678;24.560;2023-07-16T10:11:40;98306.16;;;29.68;45.10
45327;BME280;31062;49.678;24.560;2023-07-16T10:14:27;98281.84;;;29.56;44.87
45327;BME280;31062;49.678;24.560;2023-07-16T10:17:13;98261.84;;;29.52;44.27
45327;BME280;31062;49.678;24.560;2023-07-16T10:22:58;98213.19;;;29.18;44.26
45327;BME280;31062;49.678;24.560;2023-07-16T10:26:04;98290.47;;;29.81;43.52
45327;BME280;31062;49.678;24.560;2023-07-16T10:28:51;98288.34;;;29.79;43.53
45327;BME280;31062;49.678;24.560;2023-07-16T10:31:36;98174.59;;;29.03;44.95
45327;BME280;31062;49.678;24.560;2023-07-16T10:34:23;98247.59;;;29.58;43.50
45327;BME280;31062;49.678;24.560;2023-07-16T10:37:09;98258.31;;;29.70;44.01
45327;BME280;31062;49.678;24.560;2023-07-16T10:39:57;98296.28;;;29.97;43.95
45327;BME280;31062;49.678;24.560;2023-07-16T10:42:43;98169.69;;;29.28;44.14
45327;BME280;31062;49.678;24.560;2023-07-16T10:45:29;98183.31;;;29.45;41.68
45327;BME280;31062;49.678;24.560;2023-07-16T10:48:15;98173.31;;;29.42;40.67
45327;BME280;31062;49.678;24.560;2023-07-16T10:51:01;98292.00;;;30.26;41.71
45327;BME280;31062;49.678;24.560;2023-07-16T10:53:46;98280.56;;;30.30;40.42
45327;BME280;31062;49.678;24.560;2023-07-16T10:56:35;98246.25;;;30.04;39.62
45327;BME280;31062;49.678;24.560;2023-07-16T10:59:22;98170.47;;;29.52;39.37
45327;BME280;31062;49.678;24.560;2023-07-16T11:02:12;98302.00;;;30.37;39.30
45327;BME280;31062;49.678;24.560;2023-07-16T11:04:59;98282.69;;;30.36;40.17
45327;BME280;31062;49.678;24.560;2023-07-16T11:07:48;98277.69;;;30.40;39.59
45327;BME280;31062;49.678;24.560;2023-07-16T11:10:39;98269.13;;;30.36;38.75
45327;BME280;31062;49.678;24.560;2023-07-16T11:13:29;98284.81;;;30.46;39.96
45327;BME280;31062;49.678;24.560;2023-07-16T11:16:15;98282.00;;;30.52;38.20
45327;BME280;31062;49.678;24.560;2023-07-16T11:19:06;98219.78;;;30.03;39.27
45327;BME280;31062;49.678;24.560;2023-07-16T11:21:52;98279.13;;;30.41;38.94
45327;BME280;31062;49.678;24.560;2023-07-16T11:24:48;98289.16;;;30.49;38.07
45327;BME280;31062;49.678;24.560;2023-07-16T11:27:34;98284.09;;;30.45;37.56
45327;BME280;31062;49.678;24.560;2023-07-16T11:30:23;98214.78;;;29.88;38.18
45327;BME280;31062;49.678;24.560;2023-07-16T11:33:11;98191.91;;;29.76;37.63
45327;BME280;31062;49.678;24.560;2023-07-16T11:35:57;98167.63;;;29.54;36.78
45327;BME280;31062;49.678;24.560;2023-07-16T11:38:42;98250.56;;;30.03;36.78
45327;BME280;31062;49.678;24.560;2023-07-16T11:41:28;98166.19;;;29.43;37.39
45327;BME280;31062;49.678;24.560;2023-07-16T11:44:13;98188.34;;;29.61;38.07
45327;BME280;31062;49.678;24.560;2023-07-16T11:46:59;98293.41;;;30.23;37.30
45327;BME280;31062;49.678;24.560;2023-07-16T11:49:44;98191.91;;;29.63;37.17
45327;BME280;31062;49.678;24.560;2023-07-16T11:52:30;98303.44;;;30.34;37.76
45327;BME280;31062;49.678;24.560;2023-07-16T11:55:15;98304.84;;;30.35;37.79
45327;BME280;31062;49.678;24.560;2023-07-16T11:58:01;98295.56;;;30.33;37.26
45327;BME280;31062;49.678;24.560;2023-07-16T12:00:48;98281.25;;;30.35;36.67
45327;BME280;31062;49.678;24.560;2023-07-16T12:03:36;98276.25;;;30.35;36.66
45327;BME280;31062;49.678;24.560;2023-07-16T12:06:21;98157.59;;;29.45;36.60
45327;BME280;31062;49.678;24.560;2023-07-16T12:09:07;98279.13;;;30.31;37.75
45327;BME280;31062;49.678;24.560;2023-07-16T12:11:52;98224.78;;;29.83;37.92
45327;BME280;31062;49.678;24.560;2023-07-16T12:14:38;98256.22;;;30.33;38.76
45327;BME280;31062;49.678;24.560;2023-07-16T12:17:23;98259.09;;;30.35;39.13
45327;BME280;31062;49.678;24.560;2023-07-16T12:20:09;98150.50;;;29.58;38.96
45327;BME280;31062;49.678;24.560;2023-07-16T12:22:55;98260.53;;;30.45;38.64
45327;BME280;31062;49.678;24.560;2023-07-16T12:25:40;98131.91;;;29.61;38.14
45327;BME280;31062;49.678;24.560;2023-07-16T12:28:26;98137.63;;;29.66;38.62
45327;BME280;31062;49.678;24.560;2023-07-16T12:31:11;98259.09;;;30.43;39.02
45327;BME280;31062;49.678;24.560;2023-07-16T12:33:57;98251.97;;;30.49;38.54
45327;BME280;31062;49.678;24.560;2023-07-16T12:36:43;98157.63;;;29.76;39.18
45327;BME280;31062;49.678;24.560;2023-07-16T12:39:29;98209.06;;;30.16;39.26
45327;BME280;31062;49.678;24.560;2023-07-16T12:42:14;98165.50;;;29.83;38.79
45327;BME280;31062;49.678;24.560;2023-07-16T12:45:01;98227.66;;;30.29;38.63
45327;BME280;31062;49.678;24.560;2023-07-16T12:47:46;98159.06;;;29.73;38.90
45327;BME280;31062;49.678;24.560;2023-07-16T12:50:32;98236.94;;;30.40;39.88
45327;BME280;31062;49.678;24.560;2023-07-16T12:53:17;98239.09;;;30.43;40.23
45327;BME280;31062;49.678;24.560;2023-07-16T12:56:03;98123.34;;;29.63;41.21
45327;BME280;31062;49.678;24.560;2023-07-16T12:58:49;98253.38;;;30.58;41.69
45327;BME280;31062;49.678;24.560;2023-07-16T13:01:35;98214.78;;;30.36;39.18
45327;BME280;31062;49.678;24.560;2023-07-16T13:04:20;98126.91;;;29.74;38.71
45327;BME280;31062;49.678;24.560;2023-07-16T13:07:06;98250.53;;;30.62;38.90
45327;BME280;31062;49.678;24.560;2023-07-16T13:09:53;98109.06;;;29.39;40.35
45327;BME280;31062;49.678;24.560;2023-07-16T13:12:58;98134.78;;;29.76;40.96
45327;BME280;31062;49.678;24.560;2023-07-16T13:15:47;98120.50;;;29.70;41.79
45327;BME280;31062;49.678;24.560;2023-07-16T13:18:33;98241.22;;;30.51;40.98
45327;BME280;31062;49.678;24.560;2023-07-16T13:21:18;98117.63;;;29.68;41.71
45327;BME280;31062;49.678;24.560;2023-07-16T13:24:04;98246.97;;;30.55;40.82
45327;BME280;31062;49.678;24.560;2023-07-16T13:26:49;98244.81;;;30.50;42.45
45327;BME280;31062;49.678;24.560;2023-07-16T13:29:35;98221.91;;;30.33;43.06
45327;BME280;31062;49.678;24.560;2023-07-16T13:32:20;98116.19;;;29.50;41.62
45327;BME280;31062;49.678;24.560;2023-07-16T13:35:06;98234.81;;;30.22;42.75
45327;BME280;31062;49.678;24.560;2023-07-16T13:37:52;98207.66;;;30.15;42.79
45327;BME280;31062;49.678;24.560;2023-07-16T13:40:37;98250.53;;;30.50;40.59
45327;BME280;31062;49.678;24.560;2023-07-16T13:43:23;98239.81;;;30.44;40.76
45327;BME280;31062;49.678;24.560;2023-07-16T13:46:08;98191.94;;;30.10;40.78
45327;BME280;31062;49.678;24.560;2023-07-16T13:48:53;98204.78;;;30.17;40.45
45327;BME280;31062;49.678;24.560;2023-07-16T13:51:43;98214.78;;;30.30;40.81
45327;BME280;31062;49.678;24.560;2023-07-16T13:54:29;98132.63;;;29.70;40.94
45327;BME280;31062;49.678;24.560;2023-07-16T13:57:14;98146.22;;;29.84;39.64
45327;BME280;31062;49.678;24.560;2023-07-16T13:59:59;98254.84;;;30.49;40.16
45327;BME280;31062;49.678;24.560;2023-07-16T14:02:48;98237.66;;;30.49;39.87
45327;BME280;31062;49.678;24.560;2023-07-16T14:05:34;98113.38;;;29.60;39.93
45327;BME280;31062;49.678;24.560;2023-07-16T14:08:23;98246.94;;;30.51;41.30
45327;BME280;31062;49.678;24.560;2023-07-16T14:11:09;98227.63;;;30.39;41.54
45327;BME280;31062;49.678;24.560;2023-07-16T14:13:55;98206.22;;;30.28;40.32
45327;BME280;31062;49.678;24.560;2023-07-16T14:16:40;98107.66;;;29.65;40.40
45327;BME280;31062;49.678;24.560;2023-07-16T14:19:26;98210.47;;;30.33;41.39
45327;BME280;31062;49.678;24.560;2023-07-16T14:22:12;98239.09;;;30.54;40.75
45327;BME280;31062;49.678;24.560;2023-07-16T14:25:00;98239.06;;;30.58;41.02
45327;BME280;31062;49.678;24.560;2023-07-16T14:27:45;98234.81;;;30.55;40.92
45327;BME280;31062;49.678;24.560;2023-07-16T14:30:32;98238.38;;;30.53;40.35
45327;BME280;31062;49.678;24.560;2023-07-16T14:33:18;98209.06;;;30.32;40.55
45327;BME280;31062;49.678;24.560;2023-07-16T14:36:03;98214.78;;;30.16;39.11
45327;BME280;31062;49.678;24.560;2023-07-16T14:38:49;98221.94;;;30.37;39.80
45327;BME280;31062;49.678;24.560;2023-07-16T14:41:34;98226.22;;;30.38;39.57
45327;BME280;31062;49.678;24.560;2023-07-16T14:44:20;98182.63;;;30.10;39.89
45327;BME280;31062;49.678;24.560;2023-07-16T14:47:05;98219.06;;;30.37;39.72